Kadoka, South Dakota
Current Conditions -  °F | °C
As of 5:55 PM on Wednesday 22 Oct 2014 (Local Time) from KPHP Reporting Station
Clear Clear  
Wind Chill: 55°   Ceiling: Unl
Heat Index: 55°   Visibility: 10mi
Dew Point: 33°   Wind: 7mph
Humidity: 43%   Direction: 330°NNW
Pressure: 29.98"   Gusts: NA
Location:  43.83°N, 101.51°W
Report Text: KPHP 222355Z AUTO 33006KT 10SM CLR 13/01 A2998 RMK AO2 SLP146 T01280006 10200 20128 53006
Loading
Personal Weather Stations






























Interactive Weather Map
Tropical Storm Tracking
New forecast layout! Learn more

10-Day Weather Forecast

Advertisements
Track Severe Weather on mobile